sensor_id;sensor_type;location;lat;lon;timestamp;pressure;altitude;pressure_sealevel;temperature;humidity
50103;BME280;35993;52.604;10.078;2024-03-08T00:00:05;101798.16;;;3.26;71.59
50103;BME280;35993;52.604;10.078;2024-03-08T00:02:38;101794.47;;;3.18;71.74
50103;BME280;35993;52.604;10.078;2024-03-08T00:05:05;101793.09;;;3.14;72.19
50103;BME280;35993;52.604;10.078;2024-03-08T00:07:31;101797.72;;;3.11;72.29
50103;BME280;35993;52.604;10.078;2024-03-08T00:09:57;101799.28;;;3.14;72.34
50103;BME280;35993;52.604;10.078;2024-03-08T00:12:22;101795.19;;;3.10;72.50
50103;BME280;35993;52.604;10.078;2024-03-08T00:14:48;101801.69;;;3.07;72.13
50103;BME280;35993;52.604;10.078;2024-03-08T00:17:13;101798.00;;;2.99;72.64
50103;BME280;35993;52.604;10.078;2024-03-08T00:19:40;101790.69;;;3.01;72.57
50103;BME280;35993;52.604;10.078;2024-03-08T00:22:06;101789.13;;;2.98;72.72
50103;BME280;35993;52.604;10.078;2024-03-08T00:24:33;101791.91;;;2.97;72.57
50103;BME280;35993;52.604;10.078;2024-03-08T00:26:59;101788.56;;;2.94;72.45
50103;BME280;35993;52.604;10.078;2024-03-08T00:29:24;101786.56;;;2.87;72.57
50103;BME280;35993;52.604;10.078;2024-03-08T00:31:50;101790.81;;;2.89;73.04
50103;BME280;35993;52.604;10.078;2024-03-08T00:34:15;101794.31;;;2.90;73.14
50103;BME280;35993;52.604;10.078;2024-03-08T00:36:41;101785.16;;;2.83;73.31
50103;BME280;35993;52.604;10.078;2024-03-08T00:39:06;101785.72;;;2.86;73.15
50103;BME280;35993;52.604;10.078;2024-03-08T00:41:32;101789.66;;;2.82;72.95
50103;BME280;35993;52.604;10.078;2024-03-08T00:43:58;101788.66;;;2.73;73.55
50103;BME280;35993;52.604;10.078;2024-03-08T00:46:24;101791.78;;;2.78;73.57
50103;BME280;35993;52.604;10.078;2024-03-08T00:48:49;101786.84;;;2.84;73.84
50103;BME280;35993;52.604;10.078;2024-03-08T00:51:15;101794.31;;;2.90;73.43
50103;BME280;35993;52.604;10.078;2024-03-08T00:53:41;101790.94;;;2.78;73.41
50103;BME280;35993;52.604;10.078;2024-03-08T00:56:08;101794.75;;;2.75;74.33
50103;BME280;35993;52.604;10.078;2024-03-08T00:58:38;101785.84;;;2.65;74.19
50103;BME280;35993;52.604;10.078;2024-03-08T01:01:04;101794.13;;;2.62;74.40
50103;BME280;35993;52.604;10.078;2024-03-08T01:03:30;101800.06;;;2.56;75.24
50103;BME280;35993;52.604;10.078;2024-03-08T01:05:59;101785.78;;;2.45;75.06
50103;BME280;35993;52.604;10.078;2024-03-08T01:08:27;101791.38;;;2.33;75.50
50103;BME280;35993;52.604;10.078;2024-03-08T01:10:53;101788.88;;;2.41;75.45
50103;BME280;35993;52.604;10.078;2024-03-08T01:13:19;101784.78;;;2.37;76.13
50103;BME280;35993;52.604;10.078;2024-03-08T01:15:45;101789.44;;;2.35;76.03
50103;BME280;35993;52.604;10.078;2024-03-08T01:18:11;101776.72;;;2.27;76.37
50103;BME280;35993;52.604;10.078;2024-03-08T01:20:38;101775.72;;;2.28;76.58
50103;BME280;35993;52.604;10.078;2024-03-08T01:23:05;101772.31;;;2.26;76.75
50103;BME280;35993;52.604;10.078;2024-03-08T01:25:33;101772.91;;;2.29;76.75
50103;BME280;35993;52.604;10.078;2024-03-08T01:27:59;101759.47;;;2.20;76.99
50103;BME280;35993;52.604;10.078;2024-03-08T01:30:27;101766.50;;;2.11;77.78
50103;BME280;35993;52.604;10.078;2024-03-08T01:32:53;101761.41;;;2.08;77.79
50103;BME280;35993;52.604;10.078;2024-03-08T01:35:19;101759.84;;;2.05;77.76
50103;BME280;35993;52.604;10.078;2024-03-08T01:37:47;101755.47;;;2.04;78.00
50103;BME280;35993;52.604;10.078;2024-03-08T01:40:15;101753.53;;;2.06;78.03
50103;BME280;35993;52.604;10.078;2024-03-08T01:42:44;101756.19;;;2.06;78.52
50103;BME280;35993;52.604;10.078;2024-03-08T01:45:10;101752.13;;;2.12;77.99
50103;BME280;35993;52.604;10.078;2024-03-08T01:47:36;101752.41;;;2.09;77.98
50103;BME280;35993;52.604;10.078;2024-03-08T01:50:03;101741.38;;;2.02;78.32
50103;BME280;35993;52.604;10.078;2024-03-08T01:52:30;101733.34;;;2.02;78.63
50103;BME280;35993;52.604;10.078;2024-03-08T01:54:59;101735.06;;;2.13;78.70
50103;BME280;35993;52.604;10.078;2024-03-08T01:57:27;101734.47;;;2.09;78.64
50103;BME280;35993;52.604;10.078;2024-03-08T01:59:53;101733.22;;;2.04;79.12
50103;BME280;35993;52.604;10.078;2024-03-08T02:02:21;101735.16;;;2.02;79.43
50103;BME280;35993;52.604;10.078;2024-03-08T02:04:47;101736.59;;;2.06;79.46
50103;BME280;35993;52.604;10.078;2024-03-08T02:07:13;101733.22;;;2.04;79.34
50103;BME280;35993;52.604;10.078;2024-03-08T02:09:38;101733.78;;;2.07;79.64
50103;BME280;35993;52.604;10.078;2024-03-08T02:12:05;101735.59;;;2.07;79.49
50103;BME280;35993;52.604;10.078;2024-03-08T02:14:35;101731.66;;;2.11;79.13
50103;BME280;35993;52.604;10.078;2024-03-08T02:17:02;101733.50;;;2.10;79.63
50103;BME280;35993;52.604;10.078;2024-03-08T02:19:27;101734.19;;;2.03;79.32
50103;BME280;35993;52.604;10.078;2024-03-08T02:21:53;101728.38;;;1.98;79.74
50103;BME280;35993;52.604;10.078;2024-03-08T02:24:19;101730.69;;;2.02;79.64
50103;BME280;35993;52.604;10.078;2024-03-08T02:26:44;101722.75;;;2.01;79.80
50103;BME280;35993;52.604;10.078;2024-03-08T02:29:10;101721.78;;;2.02;79.48
50103;BME280;35993;52.604;10.078;2024-03-08T02:31:35;101720.22;;;1.99;79.31
50103;BME280;35993;52.604;10.078;2024-03-08T02:34:01;101713.84;;;1.90;79.90
50103;BME280;35993;52.604;10.078;2024-03-08T02:36:27;101709.59;;;1.88;79.81
50103;BME280;35993;52.604;10.078;2024-03-08T02:38:52;101710.03;;;1.93;80.16
50103;BME280;35993;52.604;10.078;2024-03-08T02:41:20;101710.31;;;1.90;79.97
50103;BME280;35993;52.604;10.078;2024-03-08T02:43:46;101705.94;;;1.89;80.40
50103;BME280;35993;52.604;10.078;2024-03-08T02:46:11;101709.34;;;1.91;80.61
50103;BME280;35993;52.604;10.078;2024-03-08T02:48:37;101706.66;;;1.91;79.99
50103;BME280;35993;52.604;10.078;2024-03-08T02:51:03;101701.47;;;1.89;80.22
50103;BME280;35993;52.604;10.078;2024-03-08T02:53:28;101703.41;;;1.87;80.05
50103;BME280;35993;52.604;10.078;2024-03-08T02:55:54;101697.47;;;1.84;79.96
50103;BME280;35993;52.604;10.078;2024-03-08T02:58:20;101694.22;;;1.80;80.56
50103;BME280;35993;52.604;10.078;2024-03-08T03:00:46;101700.09;;;1.74;80.58
50103;BME280;35993;52.604;10.078;2024-03-08T03:03:11;101700.38;;;1.71;80.95
50103;BME280;35993;52.604;10.078;2024-03-08T03:05:37;101694.31;;;1.69;80.86
50103;BME280;35993;52.604;10.078;2024-03-08T03:08:02;101695.03;;;1.71;81.21
50103;BME280;35993;52.604;10.078;2024-03-08T03:10:34;101687.84;;;1.71;80.91
50103;BME280;35993;52.604;10.078;2024-03-08T03:13:01;101686.69;;;1.64;81.46
50103;BME280;35993;52.604;10.078;2024-03-08T03:15:26;101678.25;;;1.69;81.41
50103;BME280;35993;52.604;10.078;2024-03-08T03:17:52;101685.16;;;1.71;81.58
50103;BME280;35993;52.604;10.078;2024-03-08T03:20:18;101676.97;;;1.63;81.52
50103;BME280;35993;52.604;10.078;2024-03-08T03:22:58;101674.56;;;1.60;81.49
50103;BME280;35993;52.604;10.078;2024-03-08T03:25:26;101681.44;;;1.53;81.75
50103;BME280;35993;52.604;10.078;2024-03-08T03:27:58;101678.00;;;1.41;81.82
50103;BME280;35993;52.604;10.078;2024-03-08T03:30:24;101681.19;;;1.35;82.46
50103;BME280;35993;52.604;10.078;2024-03-08T03:32:53;101676.53;;;1.37;82.88
50103;BME280;35993;52.604;10.078;2024-03-08T03:35:20;101679.81;;;1.40;83.05
50103;BME280;35993;52.604;10.078;2024-03-08T03:37:47;101669.38;;;1.37;82.91
50103;BME280;35993;52.604;10.078;2024-03-08T03:40:35;101677.28;;;1.39;82.71
50103;BME280;35993;52.604;10.078;2024-03-08T03:43:02;101673.31;;;1.33;82.96
50103;BME280;35993;52.604;10.078;2024-03-08T03:45:48;101666.50;;;1.29;83.04
50103;BME280;35993;52.604;10.078;2024-03-08T03:48:14;101662.78;;;1.20;83.01
50103;BME280;35993;52.604;10.078;2024-03-08T03:50:39;101660.13;;;1.20;83.67
50103;BME280;35993;52.604;10.078;2024-03-08T03:53:05;101665.22;;;1.23;83.67
50103;BME280;35993;52.604;10.078;2024-03-08T03:55:34;101662.09;;;1.18;83.43
50103;BME280;35993;52.604;10.078;2024-03-08T03:58:00;101651.94;;;1.12;83.84
50103;BME280;35993;52.604;10.078;2024-03-08T04:00:26;101662.03;;;1.08;84.13
50103;BME280;35993;52.604;10.078;2024-03-08T04:02:52;101663.00;;;1.07;84.34
50103;BME280;35993;52.604;10.078;2024-03-08T04:05:18;101659.22;;;1.10;84.39
50103;BME280;35993;52.604;10.078;2024-03-08T04:07:43;101658.09;;;1.12;84.47
50103;BME280;35993;52.604;10.078;2024-03-08T04:10:11;101657.00;;;1.15;84.42
50103;BME280;35993;52.604;10.078;2024-03-08T04:12:38;101660.69;;;1.14;84.75
50103;BME280;35993;52.604;10.078;2024-03-08T04:15:04;101651.19;;;1.10;84.43
50103;BME280;35993;52.604;10.078;2024-03-08T04:17:35;101651.19;;;1.10;84.78
50103;BME280;35993;52.604;10.078;2024-03-08T04:20:04;101657.28;;;1.12;84.95
50103;BME280;35993;52.604;10.078;2024-03-08T04:22:36;101658.31;;;1.21;84.61
50103;BME280;35993;52.604;10.078;2024-03-08T04:25:03;101658.91;;;1.24;84.36
50103;BME280;35993;52.604;10.078;2024-03-08T04:27:29;101652.81;;;1.22;84.36
50103;BME280;35993;52.604;10.078;2024-03-08T04:29:54;101656.75;;;1.18;84.45
50103;BME280;35993;52.604;10.078;2024-03-08T04:32:20;101655.78;;;1.19;84.65
50103;BME280;35993;52.604;10.078;2024-03-08T04:34:45;101652.38;;;1.17;84.24
50103;BME280;35993;52.604;10.078;2024-03-08T04:37:11;101647.75;;;1.19;84.27
50103;BME280;35993;52.604;10.078;2024-03-08T04:39:39;101646.50;;;1.23;84.13
50103;BME280;35993;52.604;10.078;2024-03-08T04:42:05;101642.00;;;1.24;83.37
50103;BME280;35993;52.604;10.078;2024-03-08T04:44:51;101638.09;;;1.28;83.40
50103;BME280;35993;52.604;10.078;2024-03-08T04:47:19;101625.41;;;1.30;82.99
50103;BME280;35993;52.604;10.078;2024-03-08T04:49:44;101638.47;;;1.23;83.15
50103;BME280;35993;52.604;10.078;2024-03-08T04:52:11;101635.41;;;1.28;82.68
50103;BME280;35993;52.604;10.078;2024-03-08T04:54:37;101632.31;;;1.33;82.52
50103;BME280;35993;52.604;10.078;2024-03-08T04:57:03;101630.75;;;1.30;82.47
50103;BME280;35993;52.604;10.078;2024-03-08T04:59:31;101637.53;;;1.34;82.30
50103;BME280;35993;52.604;10.078;2024-03-08T05:01:56;101630.53;;;1.43;81.88
50103;BME280;35993;52.604;10.078;2024-03-08T05:04:22;101625.91;;;1.45;81.74
50103;BME280;35993;52.604;10.078;2024-03-08T05:06:48;101626.88;;;1.44;81.74
50103;BME280;35993;52.604;10.078;2024-03-08T05:09:14;101628.16;;;1.50;81.59
50103;BME280;35993;52.604;10.078;2024-03-08T05:11:43;101620.03;;;1.51;81.24
50103;BME280;35993;52.604;10.078;2024-03-08T05:14:12;101627.16;;;1.41;81.57
50103;BME280;35993;52.604;10.078;2024-03-08T05:16:45;101631.56;;;1.52;81.41
50103;BME280;35993;52.604;10.078;2024-03-08T05:19:15;101620.03;;;1.51;81.06
50103;BME280;35993;52.604;10.078;2024-03-08T05:21:49;101627.84;;;1.43;80.64
50103;BME280;35993;52.604;10.078;2024-03-08T05:24:16;101624.88;;;1.36;80.88
50103;BME280;35993;52.604;10.078;2024-03-08T05:26:44;101632.91;;;1.36;81.56
50103;BME280;35993;52.604;10.078;2024-03-08T05:29:10;101631.66;;;1.40;81.54
50103;BME280;35993;52.604;10.078;2024-03-08T05:31:45;101632.91;;;1.36;81.21
50103;BME280;35993;52.604;10.078;2024-03-08T05:34:10;101627.72;;;1.44;81.24
50103;BME280;35993;52.604;10.078;2024-03-08T05:36:36;101627.84;;;1.43;81.00
50103;BME280;35993;52.604;10.078;2024-03-08T05:39:03;101629.66;;;1.33;81.30
50103;BME280;35993;52.604;10.078;2024-03-08T05:41:32;101624.56;;;1.29;81.46
50103;BME280;35993;52.604;10.078;2024-03-08T05:43:57;101628.22;;;1.28;81.59
50103;BME280;35993;52.604;10.078;2024-03-08T05:46:23;101627.94;;;1.31;81.85
50103;BME280;35993;52.604;10.078;2024-03-08T05:48:48;101626.66;;;1.26;81.80
50103;BME280;35993;52.604;10.078;2024-03-08T05:51:14;101623.00;;;1.27;81.73
50103;BME280;35993;52.604;10.078;2024-03-08T05:53:39;101624.72;;;1.28;81.59
50103;BME280;35993;52.604;10.078;2024-03-08T05:56:06;101622.56;;;1.22;81.80
50103;BME280;35993;52.604;10.078;2024-03-08T05:58:32;101620.47;;;1.25;82.04
50103;BME280;35993;52.604;10.078;2024-03-08T06:00:58;101624.25;;;1.23;81.96
50103;BME280;35993;52.604;10.078;2024-03-08T06:03:23;101625.94;;;1.24;82.35
50103;BME280;35993;52.604;10.078;2024-03-08T06:05:49;101620.59;;;1.24;82.03
50103;BME280;35993;52.604;10.078;2024-03-08T06:08:16;101623.16;;;1.25;81.98
50103;BME280;35993;52.604;10.078;2024-03-08T06:10:42;101620.34;;;1.27;82.07
50103;BME280;35993;52.604;10.078;2024-03-08T06:13:08;101623.00;;;1.27;81.68
50103;BME280;35993;52.604;10.078;2024-03-08T06:15:33;101616.69;;;1.28;81.70
50103;BME280;35993;52.604;10.078;2024-03-08T06:18:00;101624.28;;;1.33;82.25
50103;BME280;35993;52.604;10.078;2024-03-08T06:20:26;101620.91;;;1.30;81.74
50103;BME280;35993;52.604;10.078;2024-03-08T06:22:52;101628.63;;;1.24;82.37
50103;BME280;35993;52.604;10.078;2024-03-08T06:25:18;101623.84;;;1.27;82.04
50103;BME280;35993;52.604;10.078;2024-03-08T06:27:44;101627.91;;;1.22;82.03
50103;BME280;35993;52.604;10.078;2024-03-08T06:30:11;101621.31;;;1.26;82.67
50103;BME280;35993;52.604;10.078;2024-03-08T06:32:37;101624.72;;;1.28;82.04
50103;BME280;35993;52.604;10.078;2024-03-08T06:35:03;101626.44;;;1.39;82.31
50103;BME280;35993;52.604;10.078;2024-03-08T06:37:34;101629.28;;;1.47;81.85
50103;BME280;35993;52.604;10.078;2024-03-08T06:40:01;101620.94;;;1.40;81.83
50103;BME280;35993;52.604;10.078;2024-03-08T06:42:27;101622.69;;;1.51;82.03
50103;BME280;35993;52.604;10.078;2024-03-08T06:44:53;101623.22;;;1.45;81.94
50103;BME280;35993;52.604;10.078;2024-03-08T06:47:21;101625.75;;;1.46;81.65
50103;BME280;35993;52.604;10.078;2024-03-08T06:49:48;101609.44;;;1.50;81.48
50103;BME280;35993;52.604;10.078;2024-03-08T06:52:14;101615.94;;;1.57;81.86
50103;BME280;35993;52.604;10.078;2024-03-08T06:54:40;101622.00;;;1.59;81.50
50103;BME280;35993;52.604;10.078;2024-03-08T06:57:06;101624.56;;;1.60;81.35
50103;BME280;35993;52.604;10.078;2024-03-08T06:59:32;101621.47;;;1.65;81.59
50103;BME280;35993;52.604;10.078;2024-03-08T07:01:57;101621.34;;;1.67;81.46
50103;BME280;35993;52.604;10.078;2024-03-08T07:04:25;101622.59;;;1.62;81.71
50103;BME280;35993;52.604;10.078;2024-03-08T07:06:55;101628.25;;;1.69;81.60
50103;BME280;35993;52.604;10.078;2024-03-08T07:09:21;101618.94;;;1.73;81.63
50103;BME280;35993;52.604;10.078;2024-03-08T07:11:47;101625.56;;;1.79;81.26
50103;BME280;35993;52.604;10.078;2024-03-08T07:14:12;101623.19;;;1.76;80.93
50103;BME280;35993;52.604;10.078;2024-03-08T07:16:40;101623.91;;;1.78;80.99
50103;BME280;35993;52.604;10.078;2024-03-08T07:19:07;101626.16;;;1.83;81.38
50103;BME280;35993;52.604;10.078;2024-03-08T07:21:32;101622.34;;;1.75;81.28
50103;BME280;35993;52.604;10.078;2024-03-08T07:23:58;101620.22;;;1.79;81.26
50103;BME280;35993;52.604;10.078;2024-03-08T07:26:26;101629.41;;;1.86;81.04
50103;BME280;35993;52.604;10.078;2024-03-08T07:28:53;101619.84;;;1.93;80.75
50103;BME280;35993;52.604;10.078;2024-03-08T07:31:20;101625.34;;;2.02;80.91
50103;BME280;35993;52.604;10.078;2024-03-08T07:34:00;101620.84;;;2.12;81.00
50103;BME280;35993;52.604;10.078;2024-03-08T07:36:27;101618.03;;;2.13;80.16
50103;BME280;35993;52.604;10.078;2024-03-08T07:38:52;101617.59;;;2.08;80.39
50103;BME280;35993;52.604;10.078;2024-03-08T07:41:18;101618.75;;;2.16;80.50
50103;BME280;35993;52.604;10.078;2024-03-08T07:43:44;101611.00;;;2.22;80.22
50103;BME280;35993;52.604;10.078;2024-03-08T07:46:10;101605.53;;;2.24;79.92
50103;BME280;35993;52.604;10.078;2024-03-08T07:48:36;101597.75;;;2.21;79.93
50103;BME280;35993;52.604;10.078;2024-03-08T07:51:02;101599.47;;;2.32;80.38
50103;BME280;35993;52.604;10.078;2024-03-08T07:53:31;101599.03;;;2.46;79.91
50103;BME280;35993;52.604;10.078;2024-03-08T07:55:57;101592.69;;;2.37;79.70
50103;BME280;35993;52.604;10.078;2024-03-08T07:58:22;101600.44;;;2.50;79.71
50103;BME280;35993;52.604;10.078;2024-03-08T08:00:49;101591.66;;;2.68;80.04
50103;BME280;35993;52.604;10.078;2024-03-08T08:03:15;101584.47;;;2.68;78.96
50103;BME280;35993;52.604;10.078;2024-03-08T08:05:41;101584.47;;;2.68;79.42
50103;BME280;35993;52.604;10.078;2024-03-08T08:08:08;101577.41;;;2.67;78.99
50103;BME280;35993;52.604;10.078;2024-03-08T08:10:36;101581.75;;;2.88;79.23
50103;BME280;35993;52.604;10.078;2024-03-08T08:13:02;101577.38;;;2.87;78.63
50103;BME280;35993;52.604;10.078;2024-03-08T08:15:30;101580.06;;;2.87;78.48
50103;BME280;35993;52.604;10.078;2024-03-08T08:17:55;101580.72;;;2.99;79.00
50103;BME280;35993;52.604;10.078;2024-03-08T08:20:21;101574.63;;;3.06;78.21
50103;BME280;35993;52.604;10.078;2024-03-08T08:22:48;101575.03;;;3.11;78.23
50103;BME280;35993;52.604;10.078;2024-03-08T08:25:14;101571.78;;;3.08;77.73
50103;BME280;35993;52.604;10.078;2024-03-08T08:27:46;101572.59;;;3.18;78.23
50103;BME280;35993;52.604;10.078;2024-03-08T08:30:12;101562.81;;;3.27;77.78
50103;BME280;35993;52.604;10.078;2024-03-08T08:32:40;101561.66;;;3.39;77.99
50103;BME280;35993;52.604;10.078;2024-03-08T08:35:07;101558.00;;;3.31;77.29
50103;BME280;35993;52.604;10.078;2024-03-08T08:37:35;101557.69;;;3.34;77.48
50103;BME280;35993;52.604;10.078;2024-03-08T08:40:04;101560.16;;;3.55;77.64
50103;BME280;35993;52.604;10.078;2024-03-08T08:42:53;101548.66;;;3.63;76.91
50103;BME280;35993;52.604;10.078;2024-03-08T08:45:18;101550.50;;;3.62;76.28
50103;BME280;35993;52.604;10.078;2024-03-08T08:47:45;101552.13;;;3.73;76.56
50103;BME280;35993;52.604;10.078;2024-03-08T08:50:12;101549.22;;;3.84;76.34
50103;BME280;35993;52.604;10.078;2024-03-08T08:52:38;101537.13;;;3.98;75.32
50103;BME280;35993;52.604;10.078;2024-03-08T08:55:04;101539.97;;;3.97;75.41
50103;BME280;35993;52.604;10.078;2024-03-08T08:57:32;101545.09;;;4.08;75.55
50103;BME280;35993;52.604;10.078;2024-03-08T08:59:59;101539.34;;;4.21;75.59
50103;BME280;35993;52.604;10.078;2024-03-08T09:02:26;101524.88;;;4.22;74.88
50103;BME280;35993;52.604;10.078;2024-03-08T09:04:52;101528.22;;;4.16;75.77
50103;BME280;35993;52.604;10.078;2024-03-08T09:07:17;101532.28;;;4.20;75.57
50103;BME280;35993;52.604;10.078;2024-03-08T09:09:44;101521.81;;;4.17;75.05
50103;BME280;35993;52.604;10.078;2024-03-08T09:12:10;101530.19;;;4.14;75.23
50103;BME280;35993;52.604;10.078;2024-03-08T09:14:41;101518.84;;;4.20;74.93
50103;BME280;35993;52.604;10.078;2024-03-08T09:17:07;101523.59;;;4.26;74.75
50103;BME280;35993;52.604;10.078;2024-03-08T09:19:34;101513.09;;;4.41;74.53
50103;BME280;35993;52.604;10.078;2024-03-08T09:22:00;101514.09;;;4.58;74.22
50103;BME280;35993;52.604;10.078;2024-03-08T09:24:26;101514.09;;;4.58;74.07
50103;BME280;35993;52.604;10.078;2024-03-08T09:26:52;101503.09;;;4.51;73.93
50103;BME280;35993;52.604;10.078;2024-03-08T09:29:17;101497.09;;;4.57;73.68
50103;BME280;35993;52.604;10.078;2024-03-08T09:31:43;101500.03;;;4.72;73.91
50103;BME280;35993;52.604;10.078;2024-03-08T09:34:11;101486.78;;;4.79;73.05
50103;BME280;35993;52.604;10.078;2024-03-08T09:36:37;101486.53;;;4.64;72.71
50103;BME280;35993;52.604;10.078;2024-03-08T09:39:02;101479.31;;;4.65;72.60
50103;BME280;35993;52.604;10.078;2024-03-08T09:41:28;101487.06;;;4.68;72.44
50103;BME280;35993;52.604;10.078;2024-03-08T09:43:56;101473.41;;;4.87;72.33
50103;BME280;35993;52.604;10.078;2024-03-08T09:46:24;101468.88;;;4.96;72.07
50103;BME280;35993;52.604;10.078;2024-03-08T09:48:53;101460.53;;;5.07;72.40
50103;BME280;35993;52.604;10.078;2024-03-08T09:51:22;101466.97;;;5.23;72.01
50103;BME280;35993;52.604;10.078;2024-03-08T09:53:52;101463.00;;;5.44;71.82
50103;BME280;35993;52.604;10.078;2024-03-08T09:56:19;101458.63;;;5.51;71.70
50103;BME280;35993;52.604;10.078;2024-03-08T09:58:46;101448.06;;;5.66;71.26
50103;BME280;35993;52.604;10.078;2024-03-08T10:01:30;101447.53;;;5.54;70.79
50103;BME280;35993;52.604;10.078;2024-03-08T10:03:57;101439.28;;;5.55;70.30
50103;BME280;35993;52.604;10.078;2024-03-08T10:06:23;101430.34;;;5.55;70.06
50103;BME280;35993;52.604;10.078;2024-03-08T10:08:50;101427.19;;;5.68;69.94
50103;BME280;35993;52.604;10.078;2024-03-08T10:11:19;101426.00;;;5.87;70.40
50103;BME280;35993;52.604;10.078;2024-03-08T10:13:46;101417.28;;;6.01;69.60
50103;BME280;35993;52.604;10.078;2024-03-08T10:16:13;101412.41;;;6.05;68.59
50103;BME280;35993;52.604;10.078;2024-03-08T10:18:40;101407.00;;;6.05;69.29
50103;BME280;35993;52.604;10.078;2024-03-08T10:21:07;101403.13;;;5.99;68.96
50103;BME280;35993;52.604;10.078;2024-03-08T10:23:36;101394.88;;;6.01;68.78
50103;BME280;35993;52.604;10.078;2024-03-08T10:26:17;101394.19;;;6.07;68.94
50103;BME280;35993;52.604;10.078;2024-03-08T10:28:50;101387.47;;;6.03;68.30
50103;BME280;35993;52.604;10.078;2024-03-08T10:31:17;101398.91;;;6.13;68.44
50103;BME280;35993;52.604;10.078;2024-03-08T10:33:43;101383.06;;;6.27;68.05
50103;BME280;35993;52.604;10.078;2024-03-08T10:36:10;101387.38;;;6.44;68.29
50103;BME280;35993;52.604;10.078;2024-03-08T10:38:41;101380.31;;;6.35;67.86
50103;BME280;35993;52.604;10.078;2024-03-08T10:41:09;101382.53;;;6.31;67.29
50103;BME280;35993;52.604;10.078;2024-03-08T10:47:00;101371.59;;;6.72;67.43
50103;BME280;35993;52.604;10.078;2024-03-08T10:49:38;101371.81;;;6.63;66.36
50103;BME280;35993;52.604;10.078;2024-03-08T10:52:05;101360.13;;;6.70;66.70
50103;BME280;35993;52.604;10.078;2024-03-08T10:54:36;101357.88;;;6.82;66.77
50103;BME280;35993;52.604;10.078;2024-03-08T10:57:07;101366.66;;;6.84;66.97
50103;BME280;35993;52.604;10.078;2024-03-08T10:59:34;101341.38;;;6.77;66.30
50103;BME280;35993;52.604;10.078;2024-03-08T11:02:01;101343.38;;;6.83;66.34
50103;BME280;35993;52.604;10.078;2024-03-08T11:04:26;101345.91;;;6.85;66.14
50103;BME280;35993;52.604;10.078;2024-03-08T11:07:00;101347.53;;;6.94;66.44
50103;BME280;35993;52.604;10.078;2024-03-08T11:09:31;101347.63;;;7.09;66.18
50103;BME280;35993;52.604;10.078;2024-03-08T11:12:20;101338.44;;;7.18;65.64
50103;BME280;35993;52.604;10.078;2024-03-08T11:14:48;101328.50;;;7.19;65.51
50103;BME280;35993;52.604;10.078;2024-03-08T11:17:25;101335.91;;;7.17;65.38
50103;BME280;35993;52.604;10.078;2024-03-08T11:19:55;101322.31;;;7.33;65.71
50103;BME280;35993;52.604;10.078;2024-03-08T11:22:23;101325.69;;;7.35;64.88
50103;BME280;35993;52.604;10.078;2024-03-08T11:24:49;101332.00;;;7.43;64.50
50103;BME280;35993;52.604;10.078;2024-03-08T11:27:15;101325.78;;;7.42;63.83
50103;BME280;35993;52.604;10.078;2024-03-08T11:29:41;101325.31;;;7.38;64.32
50103;BME280;35993;52.604;10.078;2024-03-08T11:32:08;101316.66;;;7.43;63.90
50103;BME280;35993;52.604;10.078;2024-03-08T11:34:43;101301.94;;;7.46;63.28
50103;BME280;35993;52.604;10.078;2024-03-08T11:37:13;101300.38;;;7.51;63.62
50103;BME280;35993;52.604;10.078;2024-03-08T11:39:46;101302.97;;;7.45;63.54
50103;BME280;35993;52.604;10.078;2024-03-08T11:42:12;101289.50;;;7.36;63.89
50103;BME280;35993;52.604;10.078;2024-03-08T11:44:38;101292.34;;;7.43;64.22
50103;BME280;35993;52.604;10.078;2024-03-08T11:47:11;101293.13;;;7.52;63.60
50103;BME280;35993;52.604;10.078;2024-03-08T11:49:40;101281.41;;;7.60;63.97
50103;BME280;35993;52.604;10.078;2024-03-08T11:52:13;101275.44;;;7.64;63.47
50103;BME280;35993;52.604;10.078;2024-03-08T11:54:40;101279.91;;;7.72;63.41
50103;BME280;35993;52.604;10.078;2024-03-08T11:57:06;101265.81;;;7.47;63.67
50103;BME280;35993;52.604;10.078;2024-03-08T11:59:32;101265.00;;;7.61;64.61
50103;BME280;35993;52.604;10.078;2024-03-08T12:02:03;101266.53;;;7.79;63.77
50103;BME280;35993;52.604;10.078;2024-03-08T12:04:29;101259.53;;;7.99;64.16
50103;BME280;35993;52.604;10.078;2024-03-08T12:06:59;101256.44;;;8.02;63.00
50103;BME280;35993;52.604;10.078;2024-03-08T12:09:26;101247.13;;;8.05;63.18
50103;BME280;35993;52.604;10.078;2024-03-08T12:11:52;101253.28;;;7.99;63.01
50103;BME280;35993;52.604;10.078;2024-03-08T12:14:18;101240.13;;;7.96;62.75
50103;BME280;35993;52.604;10.078;2024-03-08T12:16:44;101245.59;;;8.32;63.21
50103;BME280;35993;52.604;10.078;2024-03-08T12:19:10;101230.91;;;8.05;62.44
50103;BME280;35993;52.604;10.078;2024-03-08T12:21:36;101235.09;;;8.23;62.55
50103;BME280;35993;52.604;10.078;2024-03-08T12:24:06;101219.72;;;8.08;61.78
50103;BME280;35993;52.604;10.078;2024-03-08T12:26:37;101209.44;;;8.18;61.41
50103;BME280;35993;52.604;10.078;2024-03-08T12:29:20;101206.81;;;8.25;60.71
50103;BME280;35993;52.604;10.078;2024-03-08T12:31:52;101192.97;;;8.35;60.13
50103;BME280;35993;52.604;10.078;2024-03-08T12:34:19;101194.66;;;8.36;60.17
50103;BME280;35993;52.604;10.078;2024-03-08T12:36:49;101187.63;;;8.20;60.73
50103;BME280;35993;52.604;10.078;2024-03-08T12:39:16;101192.50;;;8.46;60.74
50103;BME280;35993;52.604;10.078;2024-03-08T12:41:43;101177.19;;;8.39;60.17
50103;BME280;35993;52.604;10.078;2024-03-08T12:44:09;101173.47;;;8.55;60.45
50103;BME280;35993;52.604;10.078;2024-03-08T12:46:39;101163.00;;;8.73;59.65
50103;BME280;35993;52.604;10.078;2024-03-08T12:49:08;101162.03;;;8.81;59.91
50103;BME280;35993;52.604;10.078;2024-03-08T12:51:35;101164.44;;;8.69;60.32
50103;BME280;35993;52.604;10.078;2024-03-08T12:54:01;101155.16;;;8.57;60.09